sensor_id;sensor_type;location;lat;lon;timestamp;pressure;altitude;pressure_sealevel;temperature;humidity
34586;BME280;20816;50.950;11.108;2022-09-28T00:01:21;96650.03;;;7.53;100.00
34586;BME280;20816;50.950;11.108;2022-09-28T00:03:50;96649.13;;;7.54;100.00
34586;BME280;20816;50.950;11.108;2022-09-28T00:06:20;96638.72;;;7.53;100.00
34586;BME280;20816;50.950;11.108;2022-09-28T00:08:47;96645.50;;;7.57;100.00
34586;BME280;20816;50.950;11.108;2022-09-28T00:11:17;96641.16;;;7.57;100.00
34586;BME280;20816;50.950;11.108;2022-09-28T00:13:50;96638.88;;;7.50;100.00
34586;BME280;20816;50.950;11.108;2022-09-28T00:16:21;96639.56;;;7.53;100.00
34586;BME280;20816;50.950;11.108;2022-09-28T00:18:48;96631.13;;;7.47;100.00
34586;BME280;20816;50.950;11.108;2022-09-28T00:21:25;96621.25;;;7.33;100.00
34586;BME280;20816;50.950;11.108;2022-09-28T00:23:53;96615.06;;;7.36;100.00
34586;BME280;20816;50.950;11.108;2022-09-28T00:26:49;96607.16;;;7.37;100.00
34586;BME280;20816;50.950;11.108;2022-09-28T00:29:21;96606.38;;;7.35;100.00
34586;BME280;20816;50.950;11.108;2022-09-28T00:31:54;96593.94;;;7.40;100.00
34586;BME280;20816;50.950;11.108;2022-09-28T00:34:25;96594.09;;;7.37;100.00
34586;BME280;20816;50.950;11.108;2022-09-28T00:36:52;96599.69;;;7.28;100.00
34586;BME280;20816;50.950;11.108;2022-09-28T00:39:19;96593.53;;;7.29;100.00
34586;BME280;20816;50.950;11.108;2022-09-28T00:41:47;96591.78;;;7.29;100.00
34586;BME280;20816;50.950;11.108;2022-09-28T00:50:21;96550.13;;;7.47;100.00
34586;BME280;20816;50.950;11.108;2022-09-28T00:58:09;96545.09;;;7.42;100.00
34586;BME280;20816;50.950;11.108;2022-09-28T01:00:38;96545.09;;;7.42;100.00
34586;BME280;20816;50.950;11.108;2022-09-28T01:03:08;96548.09;;;7.33;100.00
34586;BME280;20816;50.950;11.108;2022-09-28T01:05:36;96536.00;;;7.30;100.00
34586;BME280;20816;50.950;11.108;2022-09-28T01:08:05;96541.69;;;7.20;100.00
34586;BME280;20816;50.950;11.108;2022-09-28T01:10:33;96533.44;;;7.09;100.00
34586;BME280;20816;50.950;11.108;2022-09-28T01:13:00;96529.53;;;7.19;100.00
34586;BME280;20816;50.950;11.108;2022-09-28T01:15:27;96533.16;;;7.15;100.00
34586;BME280;20816;50.950;11.108;2022-09-28T01:26:46;96513.03;;;6.96;100.00
34586;BME280;20816;50.950;11.108;2022-09-28T01:29:21;96507.56;;;7.02;100.00
34586;BME280;20816;50.950;11.108;2022-09-28T01:32:05;96514.09;;;7.13;100.00
34586;BME280;20816;50.950;11.108;2022-09-28T01:34:40;96502.34;;;7.02;100.00
34586;BME280;20816;50.950;11.108;2022-09-28T01:37:11;96497.59;;;7.12;100.00
34586;BME280;20816;50.950;11.108;2022-09-28T01:39:42;96497.44;;;7.15;100.00
34586;BME280;20816;50.950;11.108;2022-09-28T01:42:15;96489.28;;;7.23;100.00
34586;BME280;20816;50.950;11.108;2022-09-28T01:44:46;96491.78;;;7.26;100.00
34586;BME280;20816;50.950;11.108;2022-09-28T01:47:17;96480.44;;;7.27;100.00
34586;BME280;20816;50.950;11.108;2022-09-28T01:49:49;96480.69;;;7.21;100.00
34586;BME280;20816;50.950;11.108;2022-09-28T01:52:23;96475.97;;;7.29;100.00
34586;BME280;20816;50.950;11.108;2022-09-28T01:55:07;96474.06;;;7.32;100.00
34586;BME280;20816;50.950;11.108;2022-09-28T01:57:45;96466.03;;;7.37;100.00
34586;BME280;20816;50.950;11.108;2022-09-28T02:00:14;96455.75;;;7.34;100.00
34586;BME280;20816;50.950;11.108;2022-09-28T02:05:38;96453.34;;;7.48;100.00
34586;BME280;20816;50.950;11.108;2022-09-28T02:08:09;96457.53;;;7.52;100.00
34586;BME280;20816;50.950;11.108;2022-09-28T02:10:46;96461.25;;;7.47;100.00
34586;BME280;20816;50.950;11.108;2022-09-28T02:13:20;96465.63;;;7.46;100.00
34586;BME280;20816;50.950;11.108;2022-09-28T02:15:58;96457.47;;;7.54;100.00
34586;BME280;20816;50.950;11.108;2022-09-28T02:18:28;96460.00;;;7.55;100.00
34586;BME280;20816;50.950;11.108;2022-09-28T02:21:08;96453.84;;;7.56;100.00
34586;BME280;20816;50.950;11.108;2022-09-28T02:23:38;96450.47;;;7.54;100.00
34586;BME280;20816;50.950;11.108;2022-09-28T02:26:09;96445.13;;;7.57;100.00
34586;BME280;20816;50.950;11.108;2022-09-28T02:28:37;96439.09;;;7.55;100.00
34586;BME280;20816;50.950;11.108;2022-09-28T02:31:04;96438.25;;;7.55;100.00
34586;BME280;20816;50.950;11.108;2022-09-28T02:33:38;96447.09;;;7.52;100.00
34586;BME280;20816;50.950;11.108;2022-09-28T02:36:07;96439.25;;;7.52;100.00
34586;BME280;20816;50.950;11.108;2022-09-28T02:38:35;96437.28;;;7.57;100.00
34586;BME280;20816;50.950;11.108;2022-09-28T02:41:08;96437.97;;;7.61;100.00
34586;BME280;20816;50.950;11.108;2022-09-28T02:43:54;96433.44;;;7.65;100.00
34586;BME280;20816;50.950;11.108;2022-09-28T02:46:31;96420.59;;;7.60;100.00
34586;BME280;20816;50.950;11.108;2022-09-28T02:54:55;96410.28;;;7.76;100.00
34586;BME280;20816;50.950;11.108;2022-09-28T02:57:46;96409.72;;;7.88;100.00
34586;BME280;20816;50.950;11.108;2022-09-28T03:00:22;96406.06;;;7.92;100.00
34586;BME280;20816;50.950;11.108;2022-09-28T03:08:33;96391.50;;;7.86;100.00
34586;BME280;20816;50.950;11.108;2022-09-28T03:11:13;96395.88;;;7.86;100.00
34586;BME280;20816;50.950;11.108;2022-09-28T03:13:43;96402.78;;;7.87;100.00
34586;BME280;20816;50.950;11.108;2022-09-28T03:16:15;96405.63;;;7.82;100.00
34586;BME280;20816;50.950;11.108;2022-09-28T03:18:43;96399.75;;;7.77;100.00
34586;BME280;20816;50.950;11.108;2022-09-28T03:21:11;96391.91;;;7.77;100.00
34586;BME280;20816;50.950;11.108;2022-09-28T03:23:39;96391.50;;;7.86;100.00
34586;BME280;20816;50.950;11.108;2022-09-28T03:26:12;96392.50;;;7.84;100.00
34586;BME280;20816;50.950;11.108;2022-09-28T03:28:39;96392.22;;;7.90;100.00
34586;BME280;20816;50.950;11.108;2022-09-28T03:31:05;96389.50;;;7.73;100.00
34586;BME280;20816;50.950;11.108;2022-09-28T03:33:32;96390.91;;;7.80;100.00
34586;BME280;20816;50.950;11.108;2022-09-28T03:35:59;96397.78;;;7.82;100.00
34586;BME280;20816;50.950;11.108;2022-09-28T03:38:25;96395.31;;;7.79;100.00
34586;BME280;20816;50.950;11.108;2022-09-28T03:40:57;96378.50;;;7.85;100.00
34586;BME280;20816;50.950;11.108;2022-09-28T03:43:25;96375.88;;;7.85;100.00
34586;BME280;20816;50.950;11.108;2022-09-28T03:45:56;96374.31;;;7.81;100.00
34586;BME280;20816;50.950;11.108;2022-09-28T03:48:26;96370.16;;;7.77;100.00
34586;BME280;20816;50.950;11.108;2022-09-28T03:51:00;96363.66;;;7.85;100.00
34586;BME280;20816;50.950;11.108;2022-09-28T03:53:27;96363.72;;;7.84;100.00
34586;BME280;20816;50.950;11.108;2022-09-28T03:55:55;96357.72;;;7.82;100.00
34586;BME280;20816;50.950;11.108;2022-09-28T03:58:27;96343.84;;;7.80;100.00
34586;BME280;20816;50.950;11.108;2022-09-28T04:00:53;96331.72;;;7.79;100.00
34586;BME280;20816;50.950;11.108;2022-09-28T04:03:20;96342.03;;;7.82;100.00
34586;BME280;20816;50.950;11.108;2022-09-28T04:05:48;96323.38;;;7.71;100.00
34586;BME280;20816;50.950;11.108;2022-09-28T04:08:15;96318.03;;;7.74;100.00
34586;BME280;20816;50.950;11.108;2022-09-28T04:10:42;96316.94;;;7.78;100.00
34586;BME280;20816;50.950;11.108;2022-09-28T04:13:08;96319.00;;;7.71;100.00
34586;BME280;20816;50.950;11.108;2022-09-28T04:15:35;96321.84;;;7.67;100.00
34586;BME280;20816;50.950;11.108;2022-09-28T04:18:07;96309.53;;;7.69;100.00
34586;BME280;20816;50.950;11.108;2022-09-28T04:20:34;96313.19;;;7.65;100.00
34586;BME280;20816;50.950;11.108;2022-09-28T04:23:01;96318.59;;;7.62;100.00
34586;BME280;20816;50.950;11.108;2022-09-28T04:25:28;96311.50;;;7.64;100.00
34586;BME280;20816;50.950;11.108;2022-09-28T04:27:54;96320.28;;;7.63;100.00
34586;BME280;20816;50.950;11.108;2022-09-28T04:30:39;96317.03;;;7.57;100.00
34586;BME280;20816;50.950;11.108;2022-09-28T04:33:06;96321.97;;;7.64;100.00
34586;BME280;20816;50.950;11.108;2022-09-28T04:35:33;96316.63;;;7.67;100.00
34586;BME280;20816;50.950;11.108;2022-09-28T04:37:59;96305.66;;;7.58;100.00
34586;BME280;20816;50.950;11.108;2022-09-28T04:40:26;96303.41;;;7.51;100.00
34586;BME280;20816;50.950;11.108;2022-09-28T04:42:54;96311.31;;;7.49;100.00
34586;BME280;20816;50.950;11.108;2022-09-28T04:45:21;96305.19;;;7.50;100.00
34586;BME280;20816;50.950;11.108;2022-09-28T04:47:48;96307.78;;;7.50;100.00
34586;BME280;20816;50.950;11.108;2022-09-28T04:50:15;96307.00;;;7.48;100.00
34586;BME280;20816;50.950;11.108;2022-09-28T04:52:41;96306.72;;;7.54;100.00
34586;BME280;20816;50.950;11.108;2022-09-28T04:55:11;96305.88;;;7.54;100.00
34586;BME280;20816;50.950;11.108;2022-09-28T04:57:38;96309.56;;;7.50;100.00
34586;BME280;20816;50.950;11.108;2022-09-28T05:00:05;96306.03;;;7.51;100.00
34586;BME280;20816;50.950;11.108;2022-09-28T05:02:32;96308.13;;;7.62;100.00
34586;BME280;20816;50.950;11.108;2022-09-28T05:04:59;96312.78;;;7.55;100.00
34586;BME280;20816;50.950;11.108;2022-09-28T05:07:26;96300.09;;;7.66;100.00
34586;BME280;20816;50.950;11.108;2022-09-28T05:09:52;96304.03;;;7.56;100.00
34586;BME280;20816;50.950;11.108;2022-09-28T05:12:20;96299.50;;;7.59;100.00
34586;BME280;20816;50.950;11.108;2022-09-28T05:14:47;96301.97;;;7.63;100.00
34586;BME280;20816;50.950;11.108;2022-09-28T05:17:14;96298.34;;;7.65;100.00
34586;BME280;20816;50.950;11.108;2022-09-28T05:19:40;96296.91;;;7.59;100.00
34586;BME280;20816;50.950;11.108;2022-09-28T05:22:07;96297.94;;;7.55;100.00
34586;BME280;20816;50.950;11.108;2022-09-28T05:24:39;96294.28;;;7.59;100.00
34586;BME280;20816;50.950;11.108;2022-09-28T05:27:06;96292.59;;;7.58;100.00
34586;BME280;20816;50.950;11.108;2022-09-28T05:29:32;96294.22;;;7.61;100.00
34586;BME280;20816;50.950;11.108;2022-09-28T05:31:59;96302.91;;;7.62;100.00
34586;BME280;20816;50.950;11.108;2022-09-28T05:34:27;96291.59;;;7.61;100.00
34586;BME280;20816;50.950;11.108;2022-09-28T05:36:54;96294.97;;;7.63;100.00
34586;BME280;20816;50.950;11.108;2022-09-28T05:39:21;96290.91;;;7.57;100.00
34586;BME280;20816;50.950;11.108;2022-09-28T05:41:47;96283.00;;;7.59;100.00
34586;BME280;20816;50.950;11.108;2022-09-28T05:44:14;96290.69;;;7.62;100.00
34586;BME280;20816;50.950;11.108;2022-09-28T05:46:41;96285.53;;;7.61;100.00
34586;BME280;20816;50.950;11.108;2022-09-28T05:49:08;96283.13;;;7.56;100.00
34586;BME280;20816;50.950;11.108;2022-09-28T05:51:34;96278.72;;;7.56;100.00
34586;BME280;20816;50.950;11.108;2022-09-28T05:54:01;96264.78;;;7.57;100.00
34586;BME280;20816;50.950;11.108;2022-09-28T05:56:31;96275.59;;;7.50;100.00
34586;BME280;20816;50.950;11.108;2022-09-28T05:58:58;96275.34;;;7.54;100.00
34586;BME280;20816;50.950;11.108;2022-09-28T06:01:24;96277.28;;;7.51;100.00
34586;BME280;20816;50.950;11.108;2022-09-28T06:03:51;96276.97;;;7.57;100.00
34586;BME280;20816;50.950;11.108;2022-09-28T06:06:18;96270.97;;;7.55;100.00
34586;BME280;20816;50.950;11.108;2022-09-28T06:08:44;96274.44;;;7.55;100.00
34586;BME280;20816;50.950;11.108;2022-09-28T06:11:13;96279.03;;;7.50;100.00
34586;BME280;20816;50.950;11.108;2022-09-28T06:13:40;96273.00;;;7.48;100.00
34586;BME280;20816;50.950;11.108;2022-09-28T06:16:07;96273.81;;;7.50;100.00
34586;BME280;20816;50.950;11.108;2022-09-28T06:18:34;96272.91;;;7.51;100.00
34586;BME280;20816;50.950;11.108;2022-09-28T06:21:00;96271.59;;;7.60;100.00
34586;BME280;20816;50.950;11.108;2022-09-28T06:23:28;96264.47;;;7.64;100.00
34586;BME280;20816;50.950;11.108;2022-09-28T06:25:54;96264.31;;;7.67;100.00
34586;BME280;20816;50.950;11.108;2022-09-28T06:28:21;96272.09;;;7.68;100.00
34586;BME280;20816;50.950;11.108;2022-09-28T06:30:48;96269.69;;;7.64;100.00
34586;BME280;20816;50.950;11.108;2022-09-28T06:33:14;96267.06;;;7.64;100.00
34586;BME280;20816;50.950;11.108;2022-09-28T06:35:41;96265.25;;;7.66;100.00
34586;BME280;20816;50.950;11.108;2022-09-28T06:38:08;96265.19;;;7.67;100.00
34586;BME280;20816;50.950;11.108;2022-09-28T06:40:35;96262.47;;;7.69;100.00
34586;BME280;20816;50.950;11.108;2022-09-28T06:43:09;96264.09;;;7.71;100.00
34586;BME280;20816;50.950;11.108;2022-09-28T06:45:37;96274.00;;;7.65;100.00
34586;BME280;20816;50.950;11.108;2022-09-28T06:48:04;96270.16;;;7.72;100.00
34586;BME280;20816;50.950;11.108;2022-09-28T06:50:38;96270.09;;;7.73;100.00
34586;BME280;20816;50.950;11.108;2022-09-28T06:53:06;96272.50;;;7.78;100.00
34586;BME280;20816;50.950;11.108;2022-09-28T06:55:38;96270.81;;;7.77;100.00
34586;BME280;20816;50.950;11.108;2022-09-28T06:58:06;96272.97;;;7.86;100.00
34586;BME280;20816;50.950;11.108;2022-09-28T07:00:36;96280.38;;;7.95;100.00
34586;BME280;20816;50.950;11.108;2022-09-28T07:03:09;96283.75;;;7.97;100.00
34586;BME280;20816;50.950;11.108;2022-09-28T07:05:41;96283.81;;;7.96;100.00
34586;BME280;20816;50.950;11.108;2022-09-28T07:08:08;96287.28;;;7.96;100.00
34586;BME280;20816;50.950;11.108;2022-09-28T07:10:34;96280.25;;;7.98;100.00
34586;BME280;20816;50.950;11.108;2022-09-28T07:13:03;96282.28;;;7.92;100.00
34586;BME280;20816;50.950;11.108;2022-09-28T07:15:30;96285.69;;;7.94;100.00
34586;BME280;20816;50.950;11.108;2022-09-28T07:18:01;96280.38;;;7.95;100.00
34586;BME280;20816;50.950;11.108;2022-09-28T07:20:34;96281.44;;;7.91;100.00
34586;BME280;20816;50.950;11.108;2022-09-28T07:23:12;96287.59;;;7.90;100.00
34586;BME280;20816;50.950;11.108;2022-09-28T07:25:45;96278.75;;;7.93;100.00
34586;BME280;20816;50.950;11.108;2022-09-28T07:28:14;96277.16;;;7.90;100.00
34586;BME280;20816;50.950;11.108;2022-09-28T07:30:41;96283.22;;;7.91;100.00
34586;BME280;20816;50.950;11.108;2022-09-28T07:33:12;96284.75;;;7.95;100.00
34586;BME280;20816;50.950;11.108;2022-09-28T07:35:40;96271.59;;;7.96;100.00
34586;BME280;20816;50.950;11.108;2022-09-28T07:38:09;96283.44;;;8.03;100.00
34586;BME280;20816;50.950;11.108;2022-09-28T07:40:36;96281.84;;;8.01;100.00
34586;BME280;20816;50.950;11.108;2022-09-28T07:43:22;96284.25;;;8.23;100.00
34586;BME280;20816;50.950;11.108;2022-09-28T07:45:50;96285.34;;;8.36;100.00
34586;BME280;20816;50.950;11.108;2022-09-28T07:48:18;96296.06;;;8.49;100.00
34586;BME280;20816;50.950;11.108;2022-09-28T07:50:48;96294.09;;;8.69;100.00
34586;BME280;20816;50.950;11.108;2022-09-28T07:53:18;96292.94;;;8.75;100.00
34586;BME280;20816;50.950;11.108;2022-09-28T07:55:53;96295.31;;;8.97;100.00
34586;BME280;20816;50.950;11.108;2022-09-28T07:58:21;96302.69;;;9.06;100.00
34586;BME280;20816;50.950;11.108;2022-09-28T08:00:49;96305.88;;;9.11;100.00
34586;BME280;20816;50.950;11.108;2022-09-28T08:03:16;96305.94;;;8.94;100.00
34586;BME280;20816;50.950;11.108;2022-09-28T08:05:44;96306.72;;;8.96;100.00
34586;BME280;20816;50.950;11.108;2022-09-28T08:08:12;96316.31;;;8.95;100.00
34586;BME280;20816;50.950;11.108;2022-09-28T08:10:43;96307.47;;;8.98;100.00
34586;BME280;20816;50.950;11.108;2022-09-28T08:13:13;96320.72;;;8.95;100.00
34586;BME280;20816;50.950;11.108;2022-09-28T08:15:40;96323.34;;;9.12;100.00
34586;BME280;20816;50.950;11.108;2022-09-28T08:18:08;96325.16;;;9.10;100.00
34586;BME280;20816;50.950;11.108;2022-09-28T08:20:34;96323.78;;;9.03;100.00
34586;BME280;20816;50.950;11.108;2022-09-28T08:23:20;96326.19;;;9.08;100.00
34586;BME280;20816;50.950;11.108;2022-09-28T08:25:47;96326.25;;;9.06;100.00
34586;BME280;20816;50.950;11.108;2022-09-28T08:28:14;96337.16;;;8.98;100.00
34586;BME280;20816;50.950;11.108;2022-09-28T08:30:43;96341.44;;;8.99;100.00
34586;BME280;20816;50.950;11.108;2022-09-28T08:33:15;96349.59;;;9.11;100.00
34586;BME280;20816;50.950;11.108;2022-09-28T08:35:47;96352.38;;;9.08;100.00
34586;BME280;20816;50.950;11.108;2022-09-28T08:38:19;96358.25;;;8.95;100.00
34586;BME280;20816;50.950;11.108;2022-09-28T08:46:09;96364.41;;;8.77;100.00
34586;BME280;20816;50.950;11.108;2022-09-28T08:48:50;96375.75;;;8.78;100.00
34586;BME280;20816;50.950;11.108;2022-09-28T08:56:49;96377.38;;;8.80;100.00
34586;BME280;20816;50.950;11.108;2022-09-28T08:59:21;96393.78;;;8.84;100.00
34586;BME280;20816;50.950;11.108;2022-09-28T09:01:57;96400.69;;;9.02;100.00
34586;BME280;20816;50.950;11.108;2022-09-28T09:04:25;96406.09;;;9.16;100.00
34586;BME280;20816;50.950;11.108;2022-09-28T09:15:18;96410.81;;;9.43;100.00
34586;BME280;20816;50.950;11.108;2022-09-28T09:20:58;96423.09;;;10.07;100.00
34586;BME280;20816;50.950;11.108;2022-09-28T09:23:36;96418.28;;;10.15;100.00
34586;BME280;20816;50.950;11.108;2022-09-28T09:26:13;96427.53;;;10.22;100.00
34586;BME280;20816;50.950;11.108;2022-09-28T09:29:07;96427.41;;;10.71;100.00
34586;BME280;20816;50.950;11.108;2022-09-28T09:45:45;96447.38;;;10.28;100.00
34586;BME280;20816;50.950;11.108;2022-09-28T09:48:24;96456.34;;;10.39;100.00
34586;BME280;20816;50.950;11.108;2022-09-28T09:50:59;96456.00;;;10.30;100.00
34586;BME280;20816;50.950;11.108;2022-09-28T09:53:37;96458.25;;;10.20;100.00
34586;BME280;20816;50.950;11.108;2022-09-28T09:56:21;96461.59;;;10.39;100.00
34586;BME280;20816;50.950;11.108;2022-09-28T09:58:56;96462.16;;;10.76;100.00
34586;BME280;20816;50.950;11.108;2022-09-28T10:01:38;96464.25;;;10.85;100.00
34586;BME280;20816;50.950;11.108;2022-09-28T10:04:14;96466.09;;;10.53;100.00
34586;BME280;20816;50.950;11.108;2022-09-28T10:06:46;96459.03;;;10.70;100.00
34586;BME280;20816;50.950;11.108;2022-09-28T10:09:22;96464.00;;;10.74;100.00
34586;BME280;20816;50.950;11.108;2022-09-28T10:11:50;96457.78;;;11.21;99.27
34586;BME280;20816;50.950;11.108;2022-09-28T10:14:24;96461.69;;;11.00;97.34
34586;BME280;20816;50.950;11.108;2022-09-28T10:16:52;96462.31;;;11.19;99.43
34586;BME280;20816;50.950;11.108;2022-09-28T10:19:27;96466.63;;;10.74;100.00
34586;BME280;20816;50.950;11.108;2022-09-28T10:21:55;96475.63;;;10.70;100.00
34586;BME280;20816;50.950;11.108;2022-09-28T10:24:35;96475.91;;;10.50;100.00
34586;BME280;20816;50.950;11.108;2022-09-28T10:27:16;96482.50;;;10.41;100.00
34586;BME280;20816;50.950;11.108;2022-09-28T10:29:55;96486.41;;;10.50;100.00
34586;BME280;20816;50.950;11.108;2022-09-28T10:32:25;96482.19;;;11.09;96.93
34586;BME280;20816;50.950;11.108;2022-09-28T10:34:53;96478.41;;;12.01;95.32
34586;BME280;20816;50.950;11.108;2022-09-28T10:38:02;96486.31;;;12.16;92.66
34586;BME280;20816;50.950;11.108;2022-09-28T10:40:32;96478.50;;;12.14;91.23
34586;BME280;20816;50.950;11.108;2022-09-28T10:43:06;96480.66;;;12.22;90.49
34586;BME280;20816;50.950;11.108;2022-09-28T10:45:42;96489.22;;;12.11;91.39
34586;BME280;20816;50.950;11.108;2022-09-28T10:48:18;96488.19;;;12.14;89.93
34586;BME280;20816;50.950;11.108;2022-09-28T10:51:18;96488.38;;;11.82;88.43
34586;BME280;20816;50.950;11.108;2022-09-28T10:53:58;96487.81;;;12.61;87.75
34586;BME280;20816;50.950;11.108;2022-09-28T10:56:27;96496.78;;;12.58;86.03
34586;BME280;20816;50.950;11.108;2022-09-28T10:58:55;96479.53;;;12.94;84.14
34586;BME280;20816;50.950;11.108;2022-09-28T11:01:25;96481.94;;;13.11;84.19
34586;BME280;20816;50.950;11.108;2022-09-28T11:03:59;96481.56;;;13.30;81.63
34586;BME280;20816;50.950;11.108;2022-09-28T11:06:34;96482.16;;;13.99;77.83
34586;BME280;20816;50.950;11.108;2022-09-28T11:09:04;96486.09;;;13.01;77.77
34586;BME280;20816;50.950;11.108;2022-09-28T11:11:39;96489.19;;;12.81;80.03
34586;BME280;20816;50.950;11.108;2022-09-28T11:14:26;96497.25;;;12.92;79.91
34586;BME280;20816;50.950;11.108;2022-09-28T11:19:56;96494.00;;;12.04;82.38
34586;BME280;20816;50.950;11.108;2022-09-28T11:22:27;96498.56;;;11.72;85.52
34586;BME280;20816;50.950;11.108;2022-09-28T11:30:33;96502.66;;;12.35;84.51
34586;BME280;20816;50.950;11.108;2022-09-28T11:33:12;96510.47;;;11.94;86.00
34586;BME280;20816;50.950;11.108;2022-09-28T11:44:36;96505.69;;;12.15;83.14
34586;BME280;20816;50.950;11.108;2022-09-28T11:47:29;96513.97;;;12.09;85.57
34586;BME280;20816;50.950;11.108;2022-09-28T11:53:13;96522.97;;;12.47;84.40
34586;BME280;20816;50.950;11.108;2022-09-28T12:00:58;96516.56;;;12.51;84.13
34586;BME280;20816;50.950;11.108;2022-09-28T12:03:39;96525.56;;;12.61;82.57
34586;BME280;20816;50.950;11.108;2022-09-28T12:06:13;96524.28;;;12.54;81.45
34586;BME280;20816;50.950;11.108;2022-09-28T12:08:54;96523.38;;;12.82;79.46
34586;BME280;20816;50.950;11.108;2022-09-28T12:11:26;96513.28;;;12.89;80.57
34586;BME280;20816;50.950;11.108;2022-09-28T12:13:57;96512.47;;;13.01;78.92
34586;BME280;20816;50.950;11.108;2022-09-28T12:16:26;96513.25;;;13.43;77.70
34586;BME280;20816;50.950;11.108;2022-09-28T12:19:21;96513.72;;;14.00;78.18
34586;BME280;20816;50.950;11.108;2022-09-28T12:21:52;96520.59;;;13.25;76.35
34586;BME280;20816;50.950;11.108;2022-09-28T12:24:25;96527.34;;;13.02;79.64
34586;BME280;20816;50.950;11.108;2022-09-28T12:26:58;96533.63;;;12.87;77.62
34586;BME280;20816;50.950;11.108;2022-09-28T12:29:36;96543.63;;;12.68;79.82
34586;BME280;20816;50.950;11.108;2022-09-28T12:32:06;96543.56;;;12.41;81.68
34586;BME280;20816;50.950;11.108;2022-09-28T12:34:35;96553.06;;;12.29;85.22
34586;BME280;20816;50.950;11.108;2022-09-28T12:42:50;96565.38;;;10.94;98.68
34586;BME280;20816;50.950;11.108;2022-09-28T12:48:42;96560.38;;;10.58;100.00
34586;BME280;20816;50.950;11.108;2022-09-28T12:51:53;96569.03;;;10.91;100.00
34586;BME280;20816;50.950;11.108;2022-09-28T12:57:06;96568.00;;;10.78;100.00
34586;BME280;20816;50.950;11.108;2022-09-28T12:59:57;96562.75;;;10.62;100.00
34586;BME280;20816;50.950;11.108;2022-09-28T13:02:36;96566.13;;;10.49;100.00
34586;BME280;20816;50.950;11.108;2022-09-28T13:05:17;96565.47;;;10.61;100.00
34586;BME280;20816;50.950;11.108;2022-09-28T13:11:16;96567.25;;;11.08;100.00
34586;BME280;20816;50.950;11.108;2022-09-28T13:14:10;96562.84;;;11.38;100.00
34586;BME280;20816;50.950;11.108;2022-09-28T13:21:51;96561.69;;;11.88;99.71
34586;BME280;20816;50.950;11.108;2022-09-28T13:24:24;96573.25;;;11.86;98.76
34586;BME280;20816;50.950;11.108;2022-09-28T13:27:09;96567.47;;;11.65;96.72
34586;BME280;20816;50.950;11.108;2022-09-28T13:29:38;96573.81;;;11.15;97.01
34586;BME280;20816;50.950;11.108;2022-09-28T13:32:06;96565.28;;;11.57;99.42
34586;BME280;20816;50.950;11.108;2022-09-28T13:34:35;96564.25;;;11.60;95.13
34586;BME280;20816;50.950;11.108;2022-09-28T13:39:57;96564.50;;;11.55;93.58
34586;BME280;20816;50.950;11.108;2022-09-28T13:42:32;96577.13;;;11.34;94.18
34586;BME280;20816;50.950;11.108;2022-09-28T13:48:02;96569.16;;;11.20;96.67
34586;BME280;20816;50.950;11.108;2022-09-28T13:50:41;96569.50;;;11.14;98.82
34586;BME280;20816;50.950;11.108;2022-09-28T13:56:22;96577.50;;;11.12;100.00
34586;BME280;20816;50.950;11.108;2022-09-28T13:58:57;96568.94;;;11.39;100.00
34586;BME280;20816;50.950;11.108;2022-09-28T14:01:35;96577.19;;;11.48;96.97
34586;BME280;20816;50.950;11.108;2022-09-28T14:04:21;96578.38;;;11.73;94.60
34586;BME280;20816;50.950;11.108;2022-09-28T14:06:56;96576.00;;;12.13;95.12
34586;BME280;20816;50.950;11.108;2022-09-28T14:09:40;96576.84;;;12.13;93.44
34586;BME280;20816;50.950;11.108;2022-09-28T14:12:42;96575.84;;;12.16;92.42
34586;BME280;20816;50.950;11.108;2022-09-28T14:18:18;96591.66;;;11.56;94.51
34586;BME280;20816;50.950;11.108;2022-09-28T14:29:28;96596.53;;;11.32;93.77
34586;BME280;20816;50.950;11.108;2022-09-28T14:32:02;96603.56;;;11.31;95.31
34586;BME280;20816;50.950;11.108;2022-09-28T14:34:36;96604.81;;;11.10;94.90
34586;BME280;20816;50.950;11.108;2022-09-28T14:37:17;96615.31;;;11.10;96.49
34586;BME280;20816;50.950;11.108;2022-09-28T14:40:15;96612.25;;;10.70;96.64
34586;BME280;20816;50.950;11.108;2022-09-28T14:48:49;96623.34;;;10.26;100.00
34586;BME280;20816;50.950;11.108;2022-09-28T14:53:53;96629.06;;;10.34;100.00
34586;BME280;20816;50.950;11.108;2022-09-28T14:56:20;96619.63;;;10.30;100.00
34586;BME280;20816;50.950;11.108;2022-09-28T14:58:53;96619.63;;;10.30;100.00
34586;BME280;20816;50.950;11.108;2022-09-28T15:01:24;96631.94;;;10.46;100.00
34586;BME280;20816;50.950;11.108;2022-09-28T15:03:54;96610.31;;;10.41;100.00
34586;BME280;20816;50.950;11.108;2022-09-28T15:06:22;96614.81;;;10.38;100.00
34586;BME280;20816;50.950;11.108;2022-09-28T15:08:49;96621.50;;;10.28;100.00
34586;BME280;20816;50.950;11.108;2022-09-28T15:11:20;96626.16;;;10.39;100.00
34586;BME280;20816;50.950;11.108;2022-09-28T15:13:48;96623.19;;;10.29;100.00
34586;BME280;20816;50.950;11.108;2022-09-28T15:16:22;96632.09;;;10.27;100.00
34586;BME280;20816;50.950;11.108;2022-09-28T15:19:01;96635.22;;;9.99;100.00
34586;BME280;20816;50.950;11.108;2022-09-28T15:21:38;96629.06;;;10.00;100.00
34586;BME280;20816;50.950;11.108;2022-09-28T15:24:31;96621.63;;;10.08;100.00
34586;BME280;20816;50.950;11.108;2022-09-28T15:27:00;96623.94;;;10.14;100.00
34586;BME280;20816;50.950;11.108;2022-09-28T15:29:26;96621.00;;;10.20;100.00
34586;BME280;20816;50.950;11.108;2022-09-28T15:31:57;96626.88;;;10.08;100.00
34586;BME280;20816;50.950;11.108;2022-09-28T15:34:32;96627.06;;;10.05;100.00
34586;BME280;20816;50.950;11.108;2022-09-28T15:39:52;96641.13;;;9.69;100.00
34586;BME280;20816;50.950;11.108;2022-09-28T15:42:20;96640.19;;;9.70;100.00